»·PEaware :: N2442P KWJF-KPSP

N2442P :: KWJF-KPSP

FLIGHT INFORMATION

Flight Status: Arrived
Operator: Privately registered:
United States
More flights under this callsign
Pilot: Ken Q. (14290)
Aircraft: MOONEY M-20K/M ENCORE BRAVO
(M20T)
More flights by this aircraft type
Origin: KWJF Gen Fox
United States
Destination: KPSP Palm Springs Intl
United States
More flights between these airports :: More routes between these airports
Route: KWJF PMD PDZ KBNG KPSP
File this flight plan on PilotEdge
Remarks: X
Altitude:
(Current/Filed)
11,500ft
Speed:
(Current/Filed)
165kts
Departed: 29-Aug-19 11:52 AM
Arrived: 29-Aug-19 12:41 PM
Distance/Time
Traveled:
0nm/0:49
Distance/Time
To Go:
Arrived

Flight Plot

Page will automatically refresh every two minutes.

Flight plan parsing failed; only flown route is shown


Map Options




Map Legend


Flown Route
Filed Route
Departure Airport
Arrival Airport
Navaid (VOR, NDB)
Fix

Horizontal Profiles

Position Reports

Time Latitude Longitude Heading Altitude Ground
Speed
29-Aug-19 11:24 34.739208 -118.216650 162 2351ft 0kts
29-Aug-19 11:25 34.739208 -118.216650 162 2351ft 0kts
29-Aug-19 11:26 34.739208 -118.216650 162 2351ft 0kts
29-Aug-19 11:27 34.739208 -118.216650 162 2351ft 0kts
29-Aug-19 11:28 34.739208 -118.216650 162 2351ft 0kts
29-Aug-19 11:29 34.739208 -118.216650 162 2351ft 0kts
29-Aug-19 11:30 34.739208 -118.216650 162 2351ft 0kts
29-Aug-19 11:31 34.739208 -118.216650 162 2351ft 0kts
29-Aug-19 11:32 34.739208 -118.216650 162 2351ft 0kts
29-Aug-19 11:33 34.739208 -118.216650 162 2351ft 0kts
29-Aug-19 11:34 34.739208 -118.216650 162 2351ft 0kts
29-Aug-19 11:35 34.739208 -118.216650 162 2351ft 0kts
29-Aug-19 11:36 34.739208 -118.216650 162 2351ft 0kts
29-Aug-19 11:37 34.739207 -118.216650 162 2351ft 0kts
29-Aug-19 11:38 34.739207 -118.216650 162 2351ft 0kts
29-Aug-19 11:39 34.739207 -118.216649 162 2351ft 0kts
29-Aug-19 11:40 34.739511 -118.216452 359 2351ft 3kts
29-Aug-19 11:41 34.740718 -118.216255 59 2351ft 5kts
29-Aug-19 11:42 34.741221 -118.214382 70 2351ft 7kts
29-Aug-19 11:43 34.741927 -118.211695 74 2351ft 9kts
29-Aug-19 11:44 34.742779 -118.208546 73 2351ft 10kts
29-Aug-19 11:45 34.742969 -118.207101 250 2351ft 0kts
29-Aug-19 11:46 34.742969 -118.207102 250 2351ft 0kts
29-Aug-19 11:47 34.742968 -118.207107 249 2351ft 0kts
29-Aug-19 11:48 34.743170 -118.207230 48 2351ft 5kts
29-Aug-19 11:49 34.743478 -118.207206 338 2351ft 0kts
29-Aug-19 11:50 34.743939 -118.207659 258 2351ft 0kts
29-Aug-19 11:51 34.741562 -118.216548 251 2374ft 78kts
29-Aug-19 11:52 34.728188 -118.241235 194 2978ft 110kts
29-Aug-19 11:53 34.698121 -118.231801 117 3679ft 140kts
29-Aug-19 11:55 34.684447 -118.187537 112 4538ft 138kts
29-Aug-19 11:56 34.671554 -118.143587 113 5362ft 141kts
29-Aug-19 11:57 34.654142 -118.099043 117 5985ft 150kts
29-Aug-19 11:58 34.629285 -118.057303 136 6607ft 158kts
29-Aug-19 11:59 34.592559 -118.026560 147 7213ft 162kts
29-Aug-19 12:00 34.555783 -117.994460 149 7816ft 162kts
29-Aug-19 12:01 34.513083 -117.977263 168 8431ft 164kts
29-Aug-19 12:02 34.467321 -117.970153 174 9036ft 167kts
29-Aug-19 12:03 34.422973 -117.953666 152 9633ft 167kts
29-Aug-19 12:04 34.382938 -117.925469 152 10234ft 165kts
29-Aug-19 12:05 34.343179 -117.898131 151 10834ft 164kts
29-Aug-19 12:06 34.303559 -117.870419 146 11426ft 165kts
29-Aug-19 12:07 34.265947 -117.834079 142 11547ft 178kts
29-Aug-19 12:08 34.227039 -117.795994 143 11547ft 183kts
29-Aug-19 12:09 34.187105 -117.757218 143 11146ft 186kts
29-Aug-19 12:10 34.146482 -117.718350 142 10647ft 186kts
29-Aug-19 12:11 34.105426 -117.679535 143 10150ft 187kts
29-Aug-19 12:12 34.064247 -117.641080 143 9646ft 186kts
29-Aug-19 12:12 34.030028 -117.609408 143 9238ft 187kts
29-Aug-19 12:14 33.980392 -117.567843 146 8596ft 184kts
29-Aug-19 12:15 33.939529 -117.531071 133 8002ft 184kts
29-Aug-19 12:15 33.928084 -117.482954 95 7505ft 184kts
29-Aug-19 12:17 33.922713 -117.411792 96 6814ft 183kts
29-Aug-19 12:17 33.919387 -117.361047 94 6314ft 181kts
29-Aug-19 12:18 33.916427 -117.300965 93 5708ft 177kts
29-Aug-19 12:20 33.913145 -117.233518 93 5527ft 171kts
29-Aug-19 12:20 33.913528 -117.185902 89 5533ft 170kts
29-Aug-19 12:21 33.917380 -117.129168 84 5542ft 171kts
29-Aug-19 12:22 33.922098 -117.071722 84 5550ft 172kts
29-Aug-19 12:23 33.926825 -117.014289 84 5560ft 171kts
29-Aug-19 12:24 33.930827 -116.960892 85 5109ft 170kts
29-Aug-19 12:25 33.932914 -116.911180 87 4635ft 157kts
29-Aug-19 12:26 33.934495 -116.859655 87 4131ft 151kts
29-Aug-19 12:27 33.934627 -116.809372 91 3628ft 148kts
29-Aug-19 12:28 33.933471 -116.761166 91 3123ft 142kts
29-Aug-19 12:29 33.931428 -116.713970 96 2627ft 139kts
29-Aug-19 12:30 33.926709 -116.667795 96 2123ft 138kts
29-Aug-19 12:31 33.918426 -116.623459 109 1772ft 124kts
29-Aug-19 12:32 33.910847 -116.586972 104 1855ft 114kts
29-Aug-19 12:33 33.895901 -116.551192 117 1834ft 125kts
29-Aug-19 12:34 33.873867 -116.516633 135 1633ft 141kts
29-Aug-19 12:35 33.843332 -116.486033 144 1398ft 136kts
29-Aug-19 12:36 33.816080 -116.458108 136 1297ft 121kts
29-Aug-19 12:37 33.790692 -116.450098 223 1232ft 106kts
29-Aug-19 12:38 33.796193 -116.475650 324 1075ft 89kts
29-Aug-19 12:39 33.816634 -116.493385 324 743ft 91kts
29-Aug-19 12:40 33.828642 -116.503826 318 480ft 8kts
29-Aug-19 12:41 33.831254 -116.506812 233 480ft 0kts
29-Aug-19 12:42 33.831004 -116.507089 205 480ft 11kts
29-Aug-19 12:43 33.826022 -116.507043 215 480ft 11kts
29-Aug-19 12:44 33.826301 -116.508968 342 480ft 7kts
29-Aug-19 12:45 33.826406 -116.509341 272 480ft 0kts
29-Aug-19 12:46 33.826406 -116.509341 272 480ft 0kts
29-Aug-19 12:47 34.739208 -118.216650 162 2351ft 0kts

Navigation Log

Ident Type
Flight plan parsing failed, navigation log unavailable